Terminal Aerodrome Forecast
Issued by NWS

Home | Current Version | Previous Version | Text Only | Print | Product List | Glossary On
Versions: 1 2 3 4 5 6 7 8 9 10 11 12 13 14 15 16 17 18
000
FTAK31 PAJN 202325
TAFASI
TAF
PASI 202325Z 2100/2124 10010KT P6SM -RA SCT015 OVC035
     FM210200 13012G22KT 4SM RA BR SCT015 OVC025 WS020/17030KT
     FM210800 14010G20KT 4SM RA BR BKN015 OVC025
     FM211500 14012KT 6SM -RA SCT015 OVC025=

USA.gov is the U.S. government's official web portal to all federal, state and local government web resources and services.